Dobrodošli na spletni strani vremenske postaje Senovo. Vse informacije so informativnega značaja, saj vremenska postaja ni del državne mreže meteoroloških postaj. AKTUALNIH OBVESTIL NI.


Posebna pozornost v zvezi z vremenskimi dogajanji ni potrebna.    Posebna pozornost v zvezi z vremenskimi dogajanji ni potrebna.

Pogled proti Armezu več informacij Pogled proti Armezu


Bohor več informacij Bohor


Radar strel več informacij blitzortung!


Radar padavin več informacij rain snow radar


Obiščite še:

Template documentation
and downloads

And another site



Weather Underground, zgodovina - Tekstovno

Dnevni povzetek za November 8, 2017 Enote:  Angleško    Metrično   Obe
« Predhodni Dan
Naslednji Dan »
Dnevni Tedenski Mesečni Letni Po meri
  Višja: Nižja: Povprečje:
Temperatura: TemperatureC °F 7.5 °F 8.6 °F
Točka rosišča: DewpointC °F 6.9 °F 7.7 °F
Vlažnost: Humidity % 89 % 94 %
Hitrost vetra: WindSpeedKMH mph 0.0 mph 0.9 mph
Sunki vetra: WindSpeedGustKMH mph - -
Veter:- - South
Zračni tlak: PressurehPa in 1010.0 in -
Padavine: 15.2 in    
Historical Graphs
 
 
Tabelarni podarki za November 8, 2017
Čas Temperatura Točka rosišča Zračni tlak Veter Hitrost vetra Sunki vetra Vlažnost Intenziteta padavin (urna)
TemperatureC °F DewpointC °F PressurehPa in Calm     Humidity % HourlyPrecipMM in
00:04 8.9 °F 7.5 °F 1016.1 in ENE 3.4 mph 9.0 mph 91 % 0.0 in
00:09 8.9 °F 7.5 °F 1016.1 in ENE 2.7 mph 6.4 mph 91 % 0.0 in
00:14 8.9 °F 7.5 °F 1016.1 in NE 1.8 mph 6.4 mph 91 % 0.0 in
00:19 8.9 °F 7.5 °F 1016.1 in ENE 1.3 mph 4.0 mph 91 % 0.0 in
00:24 8.9 °F 7.5 °F 1016.1 in East 1.9 mph 9.0 mph 91 % 0.0 in
00:29 9.0 °F 7.4 °F 1016.1 in ENE 4.5 mph 10.5 mph 90 % 0.0 in
00:34 9.0 °F 7.4 °F 1016.1 in ENE 5.5 mph 10.5 mph 90 % 0.0 in
00:39 9.0 °F 7.4 °F 1016.1 in NNE 4.0 mph 8.7 mph 90 % 0.0 in
00:44 9.0 °F 7.4 °F 1016.1 in NE 4.5 mph 9.3 mph 90 % 0.0 in
00:49 9.1 °F 7.6 °F 1016.1 in NE 5.1 mph 9.3 mph 90 % 0.0 in
00:54 9.1 °F 7.6 °F 1016.1 in ENE 4.7 mph 9.0 mph 90 % 0.0 in
00:59 9.1 °F 7.6 °F 1016.1 in East 5.5 mph 9.0 mph 90 % 0.0 in
01:04 9.1 °F 7.4 °F 1016.1 in East 5.1 mph 9.0 mph 89 % 0.0 in
01:09 9.1 °F 7.4 °F 1015.1 in ESE 4.2 mph 7.6 mph 89 % 0.0 in
01:14 9.1 °F 7.4 °F 1015.1 in ESE 3.9 mph 7.6 mph 89 % 0.0 in
01:19 9.1 °F 7.4 °F 1015.1 in ESE 4.0 mph 5.8 mph 89 % 0.0 in
01:24 9.1 °F 7.4 °F 1015.1 in ESE 4.3 mph 6.1 mph 89 % 0.0 in
01:29 9.0 °F 7.3 °F 1015.1 in SE 3.4 mph 6.1 mph 89 % 0.0 in
01:34 9.0 °F 7.3 °F 1015.1 in SSE 1.4 mph 5.8 mph 89 % 0.0 in
01:39 9.0 °F 7.3 °F 1015.1 in SSW 1.3 mph 4.7 mph 89 % 0.0 in
01:44 8.9 °F 7.2 °F 1015.1 in SW 4.0 mph 7.9 mph 89 % 0.0 in
01:49 8.8 °F 7.1 °F 1015.1 in SW 4.8 mph 7.9 mph 89 % 0.0 in
01:54 8.8 °F 7.1 °F 1015.1 in South 3.2 mph 6.4 mph 89 % 0.0 in
01:59 8.8 °F 7.2 °F 1015.1 in SE 3.1 mph 6.1 mph 90 % 0.0 in
02:04 8.8 °F 7.2 °F 1015.1 in SSE 3.4 mph 5.8 mph 90 % 0.0 in
02:09 8.7 °F 7.2 °F 1015.1 in South 2.9 mph 5.0 mph 90 % 0.0 in
02:14 8.7 °F 7.2 °F 1015.1 in SE 3.4 mph 5.5 mph 90 % 0.0 in
02:19 8.7 °F 7.2 °F 1015.1 in ESE 2.7 mph 5.5 mph 90 % 0.0 in
02:24 8.6 °F 7.1 °F 1015.1 in North 1.3 mph 3.5 mph 90 % 0.3 in
02:29 8.6 °F 7.1 °F 1015.1 in NNW 1.8 mph 4.3 mph 90 % 0.3 in
02:34 8.5 °F 7.1 °F 1015.1 in NNW 2.3 mph 6.1 mph 91 % 0.3 in
02:39 8.5 °F 7.1 °F 1014.1 in NNW 1.3 mph 6.1 mph 91 % 0.3 in
02:45 8.5 °F 7.1 °F 1014.1 in NE 0.2 mph 1.4 mph 91 % 0.3 in
02:50 8.5 °F 7.1 °F 1014.1 in WNW 0.3 mph 3.2 mph 91 % 0.3 in
02:55 8.4 °F 7.2 °F 1014.1 in NNW 0.5 mph 3.5 mph 92 % 0.3 in
03:00 8.4 °F 7.2 °F 1014.1 in SW 0.3 mph 5.0 mph 92 % 0.3 in
03:05 8.4 °F 7.2 °F 1014.1 in WSW 0.8 mph 5.0 mph 92 % 0.3 in
03:10 8.4 °F 7.2 °F 1014.1 in SW 0.8 mph 4.7 mph 92 % 0.3 in
03:15 8.4 °F 7.2 °F 1014.1 in SSW 1.1 mph 4.0 mph 92 % 0.3 in
03:20 8.3 °F 7.1 °F 1014.1 in SSW 1.4 mph 4.0 mph 92 % 0.0 in
03:25 8.3 °F 7.2 °F 1014.1 in NNE 0.3 mph 2.1 mph 93 % 0.0 in
03:30 8.3 °F 7.2 °F 1014.1 in Calm     93 % 0.0 in
03:35 8.3 °F 7.2 °F 1014.1 in Calm     93 % 0.0 in
03:40 8.3 °F 7.2 °F 1014.1 in Calm   5.5 mph 93 % 0.0 in
03:45 8.3 °F 7.2 °F 1014.1 in South 1.1 mph 6.9 mph 93 % 0.0 in
03:50 8.3 °F 7.2 °F 1014.1 in SW 2.4 mph 6.9 mph 93 % 0.0 in
03:55 8.3 °F 7.2 °F 1014.1 in WSW 2.1 mph 5.5 mph 93 % 0.0 in
04:00 8.2 °F 7.3 °F 1014.1 in WNW 1.1 mph 5.5 mph 94 % 0.0 in
04:05 8.2 °F 7.3 °F 1015.1 in Calm     94 % 0.0 in
04:10 8.2 °F 7.3 °F 1015.1 in West 0.8 mph 4.7 mph 94 % 0.3 in
04:15 8.2 °F 7.3 °F 1015.1 in SSW 1.9 mph 4.7 mph 94 % 0.3 in
04:19 8.2 °F 7.3 °F 1015.1 in SSE 1.6 mph 4.7 mph 94 % 0.3 in
04:20 8.2 °F 7.3 °F 1014.1 in South 1.6 mph 4.7 mph 94 % 0.3 in
04:25 8.2 °F 7.3 °F 1014.1 in SW 1.1 mph 3.5 mph 94 % 0.3 in
04:30 8.2 °F 7.3 °F 1014.1 in WSW 0.6 mph 3.2 mph 94 % 0.3 in
04:35 8.2 °F 7.3 °F 1014.1 in North 0.2 mph   94 % 0.5 in
04:40 8.2 °F 7.3 °F 1014.1 in ESE 0.3 mph 2.6 mph 94 % 0.5 in
04:46 8.2 °F 7.3 °F 1014.1 in SSW 0.8 mph 4.3 mph 94 % 0.5 in
04:51 8.2 °F 7.4 °F 1014.1 in WSW 2.3 mph 5.8 mph 95 % 0.5 in
04:56 8.2 °F 7.4 °F 1014.1 in West 2.9 mph 6.1 mph 95 % 1.0 in
05:01 8.2 °F 7.4 °F 1014.1 in WNW 1.3 mph 6.1 mph 95 % 1.0 in
05:06 8.2 °F 7.4 °F 1014.1 in Calm     95 % 1.3 in
05:11 8.2 °F 7.4 °F 1014.1 in Calm     95 % 1.3 in
05:16 8.1 °F 7.3 °F 1014.1 in Calm     95 % 1.3 in
05:21 8.1 °F 7.3 °F 1014.1 in Calm     95 % 1.5 in
05:26 8.1 °F 7.3 °F 1014.1 in Calm     95 % 1.8 in
05:31 8.1 °F 7.3 °F 1014.1 in Calm     95 % 1.8 in
05:36 8.1 °F 7.3 °F 1014.1 in Calm     95 % 1.8 in
05:41 8.1 °F 7.3 °F 1014.1 in Calm     95 % 1.8 in
05:46 8.1 °F 7.3 °F 1014.1 in Calm     95 % 2.3 in
05:51 8.1 °F 7.3 °F 1014.1 in Calm     95 % 1.8 in
05:56 8.1 °F 7.3 °F 1014.1 in Calm     95 % 2.3 in
06:01 8.1 °F 7.3 °F 1014.1 in South 0.2 mph 2.6 mph 95 % 1.8 in
06:06 8.1 °F 7.3 °F 1014.1 in South 0.2 mph 2.6 mph 95 % 2.3 in
06:11 8.0 °F 7.2 °F 1014.1 in Calm     95 % 1.8 in
06:18 8.0 °F 7.2 °F 1010.0 in Calm     95 % 2.3 in
06:23 8.0 °F 7.2 °F 1014.1 in Calm     95 % 1.8 in
06:28 8.0 °F 7.4 °F 1014.1 in Calm     96 % 2.3 in
06:33 8.0 °F 7.4 °F 1014.1 in Calm     96 % 2.3 in
06:38 8.0 °F 7.4 °F 1014.1 in Calm     96 % 2.5 in
06:43 8.0 °F 7.4 °F 1014.1 in Calm     96 % 2.3 in
06:48 8.0 °F 7.4 °F 1014.1 in Calm     96 % 2.5 in
06:53 8.0 °F 7.4 °F 1014.1 in Calm     96 % 2.5 in
06:58 8.0 °F 7.4 °F 1014.1 in Calm     96 % 2.8 in
07:03 8.0 °F 7.4 °F 1014.1 in Calm     96 % 2.8 in
07:08 8.0 °F 7.4 °F 1015.1 in Calm     96 % 3.0 in
07:13 8.0 °F 7.4 °F 1015.1 in Calm     96 % 2.8 in
07:18 7.9 °F 7.3 °F 1015.1 in Calm     96 % 2.8 in
07:23 8.0 °F 7.4 °F 1014.1 in Calm     96 % 2.5 in
07:28 8.0 °F 7.4 °F 1014.1 in Calm     96 % 2.5 in
07:33 8.0 °F 7.4 °F 1014.1 in Calm     96 % 2.3 in
07:38 8.0 °F 7.4 °F 1014.1 in Calm     96 % 1.8 in
07:43 8.0 °F 7.4 °F 1014.1 in Calm     96 % 1.8 in
07:48 8.0 °F 7.4 °F 1014.1 in SSW 1.3 mph 4.0 mph 96 % 1.5 in
07:53 8.0 °F 7.4 °F 1014.1 in SSW 1.6 mph 4.0 mph 96 % 1.3 in
07:58 8.0 °F 7.4 °F 1014.1 in SSW 0.5 mph 3.2 mph 96 % 1.3 in
08:03 8.0 °F 7.4 °F 1014.1 in Calm     96 % 1.0 in
08:08 8.0 °F 7.4 °F 1016.1 in Calm     96 % 0.8 in
08:13 8.1 °F 7.5 °F 1016.1 in Calm     96 % 1.0 in
08:18 8.1 °F 7.5 °F 1016.1 in Calm     96 % 1.3 in
08:23 8.1 °F 7.5 °F 1016.1 in Calm     96 % 1.5 in
08:28 8.1 °F 7.5 °F 1016.1 in Calm     96 % 1.3 in
08:33 8.1 °F 7.5 °F 1016.1 in Calm     96 % 1.3 in
08:38 8.2 °F 7.6 °F 1016.1 in Calm     96 % 1.3 in
08:39 8.2 °F 7.6 °F 1016.1 in Calm     96 % 1.3 in
08:44 8.2 °F 7.6 °F 1016.1 in Calm     96 % 1.5 in
08:49 8.2 °F 7.6 °F 1016.1 in Calm     96 % 1.5 in
08:54 8.2 °F 7.6 °F 1015.1 in Calm     96 % 1.5 in
08:59 8.2 °F 7.6 °F 1015.1 in Calm     96 % 1.3 in
09:04 8.3 °F 7.7 °F 1015.1 in Calm     96 % 1.8 in
09:09 8.3 °F 7.7 °F 1016.1 in Calm     96 % 1.8 in
09:19 8.4 °F 7.9 °F 1016.1 in Calm   1.8 mph 97 % 1.8 in
09:24 8.4 °F 7.9 °F 1016.1 in Calm   1.8 mph 97 % 1.8 in
09:29 8.4 °F 7.9 °F 1016.1 in Calm     97 % 2.0 in
09:34 8.4 °F 7.8 °F 1016.1 in Calm     96 % 2.5 in
09:39 8.5 °F 8.1 °F 1016.1 in Calm     97 % 2.8 in
09:44 8.5 °F 8.1 °F 1016.1 in Calm     97 % 2.8 in
09:49 8.5 °F 8.1 °F 1016.1 in Calm     97 % 3.0 in
09:54 8.5 °F 7.9 °F 1016.1 in Calm     96 % 3.3 in
09:59 8.6 °F 8.0 °F 1016.1 in Calm     96 % 3.8 in
10:04 8.6 °F 8.0 °F 1016.1 in Calm     96 % 3.6 in
10:09 8.6 °F 8.0 °F 1015.1 in Calm     96 % 3.3 in
10:14 8.6 °F 8.0 °F 1015.1 in Calm     96 % 3.0 in
10:19 8.7 °F 8.1 °F 1015.1 in Calm     96 % 3.3 in
10:24 8.7 °F 8.1 °F 1016.1 in Calm     96 % 3.0 in
10:29 8.7 °F 8.1 °F 1016.1 in Calm     96 % 2.8 in
10:34 8.8 °F 8.2 °F 1016.1 in Calm     96 % 2.8 in
10:39 8.8 °F 8.2 °F 1016.1 in Calm     96 % 2.5 in
10:40 8.8 °F 8.2 °F 1016.1 in Calm     96 % 2.5 in
10:45 8.8 °F 8.2 °F 1016.1 in Calm     96 % 2.3 in
10:50 8.8 °F 8.2 °F 1016.1 in Calm     96 % 1.5 in
10:55 8.8 °F 8.2 °F 1016.1 in Calm     96 % 1.5 in
11:00 8.9 °F 8.3 °F 1016.1 in SSW 0.3 mph 4.0 mph 96 % 1.3 in
11:05 8.9 °F 8.3 °F 1016.1 in SSW 2.1 mph 5.5 mph 96 % 1.3 in
11:10 8.9 °F 8.3 °F 1015.1 in SSW 3.5 mph 5.5 mph 96 % 1.0 in
11:15 8.9 °F 8.3 °F 1015.1 in SSW 2.6 mph 5.5 mph 96 % 1.0 in
11:20 8.8 °F 8.2 °F 1015.1 in SSW 1.0 mph 4.0 mph 96 % 1.0 in
11:25 8.8 °F 8.2 °F 1015.1 in Calm     96 % 1.0 in
11:30 8.9 °F 8.3 °F 1015.1 in Calm     96 % 1.3 in
11:35 8.9 °F 8.3 °F 1015.1 in Calm     96 % 1.3 in
11:40 9.0 °F 8.4 °F 1015.1 in Calm     96 % 1.3 in
11:45 9.1 °F 8.5 °F 1015.1 in Calm     96 % 1.3 in
11:50 9.2 °F 8.6 °F 1016.1 in Calm   3.2 mph 96 % 1.3 in
11:55 9.3 °F 8.7 °F 1016.1 in South 0.2 mph 3.2 mph 96 % 1.3 in
12:00 9.4 °F 8.8 °F 1016.1 in South 0.2 mph 3.2 mph 96 % 1.3 in
12:05 9.5 °F 8.9 °F 1016.1 in Calm     96 % 1.3 in
12:10 9.6 °F 9.0 °F 1016.1 in Calm     96 % 1.3 in
12:15 9.8 °F 9.2 °F 1016.1 in Calm     96 % 1.3 in
12:20 9.9 °F 9.3 °F 1016.1 in Calm     96 % 1.0 in
12:25 9.9 °F 9.3 °F 1016.1 in Calm     96 % 0.8 in
12:30 9.9 °F 9.3 °F 1016.1 in Calm     96 % 0.8 in
12:35 10.0 °F 9.2 °F 1016.1 in Calm     95 % 0.3 in
12:40 10.1 °F 9.3 °F 1016.1 in Calm     95 % 0.3 in
12:45 10.1 °F 9.3 °F 1016.1 in Calm     95 % 0.3 in
12:50 10.1 °F 9.3 °F 1016.1 in Calm     95 % 0.3 in
12:55 10.2 °F 9.4 °F 1016.1 in Calm     95 % 0.3 in
13:00 10.2 °F 9.4 °F 1016.1 in SW 0.8 mph 4.3 mph 95 % 0.0 in
13:05 10.3 °F 9.6 °F 1016.1 in SW 1.6 mph 4.3 mph 95 % 0.0 in
13:10 10.3 °F 9.6 °F 1016.1 in SW 2.6 mph 5.0 mph 95 % 0.0 in
13:15 10.3 °F 9.4 °F 1016.1 in WSW 2.9 mph 5.5 mph 94 % 0.0 in
13:20 10.4 °F 9.5 °F 1016.8 in WSW 2.9 mph 5.5 mph 94 % 0.0 in
13:25 10.4 °F 9.5 °F 1016.8 in SW 2.7 mph 5.5 mph 94 % 0.0 in
13:30 10.4 °F 9.5 °F 1016.8 in SSW 1.4 mph 4.3 mph 94 % 0.0 in
13:35 10.4 °F 9.5 °F 1016.8 in South 0.8 mph 4.3 mph 94 % 0.0 in
13:40 10.4 °F 9.5 °F 1016.8 in SW 1.3 mph 4.3 mph 94 % 0.0 in
13:45 10.3 °F 9.2 °F 1016.8 in SW 2.7 mph 5.0 mph 93 % 0.0 in
13:50 10.3 °F 9.2 °F 1016.1 in WSW 3.7 mph 5.5 mph 93 % 0.0 in
13:55 10.2 °F 9.1 °F 1016.1 in WSW 4.0 mph 5.5 mph 93 % 0.0 in
14:00 10.2 °F 9.1 °F 1016.1 in SW 3.9 mph 5.0 mph 93 % 0.0 in
14:05 10.2 °F 8.9 °F 1015.1 in SW 3.9 mph 5.5 mph 92 % 0.0 in
14:10 10.1 °F 8.8 °F 1015.1 in SW 3.4 mph 5.5 mph 92 % 0.0 in
14:15 10.1 °F 8.8 °F 1015.1 in WSW 2.3 mph 4.0 mph 92 % 0.0 in
14:20 10.1 °F 8.8 °F 1015.1 in SW 1.9 mph 4.3 mph 92 % 0.0 in
14:25 10.0 °F 8.8 °F 1015.1 in SW 1.8 mph 4.3 mph 92 % 0.0 in
14:30 10.0 °F 8.8 °F 1015.1 in SW 1.8 mph 4.0 mph 92 % 0.0 in
14:35 10.0 °F 8.8 °F 1016.1 in SW 2.6 mph 5.5 mph 92 % 0.0 in
14:40 10.0 °F 8.6 °F 1016.1 in WSW 2.6 mph 5.5 mph 91 % 0.0 in
14:45 10.0 °F 8.6 °F 1016.1 in WSW 1.4 mph 4.3 mph 91 % 0.0 in
14:50 10.0 °F 8.6 °F 1015.1 in South 0.2 mph 1.4 mph 91 % 0.0 in
14:55 10.0 °F 8.6 °F 1015.1 in Calm   1.8 mph 91 % 0.0 in
15:00 10.0 °F 8.6 °F 1015.1 in ESE 1.1 mph 4.0 mph 91 % 0.0 in
15:02 10.0 °F 8.6 °F 1015.1 in ESE 1.4 mph 4.0 mph 91 % 0.0 in
15:07 10.0 °F 8.6 °F 1016.1 in ESE 2.1 mph 4.0 mph 91 % 0.0 in
15:12 10.0 °F 8.6 °F 1016.1 in SE 1.6 mph 4.0 mph 91 % 0.0 in
15:17 10.0 °F 8.6 °F 1016.1 in SSE 1.3 mph 4.0 mph 91 % 0.0 in
15:22 10.0 °F 8.4 °F 1016.1 in SE 0.8 mph 3.2 mph 90 % 0.0 in
15:28 9.9 °F 8.5 °F 1016.1 in SSE 1.4 mph 4.7 mph 91 % 0.0 in
15:33 9.9 °F 8.5 °F 1016.1 in SSE 2.1 mph 4.7 mph 91 % 0.0 in
15:38 9.9 °F 8.3 °F 1016.8 in South 2.6 mph 4.3 mph 90 % 0.0 in
15:43 9.8 °F 8.2 °F 1016.8 in SSE 2.7 mph 6.9 mph 90 % 0.0 in
15:48 9.7 °F 8.1 °F 1016.8 in SE 3.1 mph 7.6 mph 90 % 0.0 in
15:53 9.7 °F 8.1 °F 1016.8 in SE 4.2 mph 7.6 mph 90 % 0.0 in
15:58 9.6 °F 8.1 °F 1016.8 in SE 4.3 mph 6.9 mph 90 % 0.0 in
16:03 9.6 °F 7.9 °F 1016.8 in SE 2.1 mph 6.4 mph 89 % 0.0 in
16:08 9.5 °F 7.8 °F 1016.8 in Calm   2.1 mph 89 % 0.0 in
16:13 9.5 °F 7.8 °F 1016.8 in SSW 1.1 mph 3.5 mph 89 % 0.0 in
16:14 9.5 °F 7.8 °F 1016.8 in SSW 1.3 mph 3.5 mph 89 % 0.0 in
16:19 9.3 °F 7.6 °F 1016.8 in SSW 1.9 mph 4.0 mph 89 % 0.0 in
16:24 9.3 °F 7.6 °F 1016.8 in SSW 1.0 mph 4.0 mph 89 % 0.0 in
16:29 9.2 °F 7.5 °F 1016.8 in West 0.5 mph 4.0 mph 89 % 0.0 in
16:34 9.2 °F 7.7 °F 1016.8 in WNW 0.5 mph 4.0 mph 90 % 0.0 in
16:39 9.1 °F 7.6 °F 1016.8 in North 0.2 mph   90 % 0.0 in
16:44 9.1 °F 7.6 °F 1016.8 in Calm     90 % 0.0 in
16:49 9.1 °F 7.6 °F 1016.8 in Calm     90 % 0.0 in
16:54 9.0 °F 7.6 °F 1016.8 in Calm     91 % 0.0 in
16:59 9.0 °F 7.6 °F 1016.8 in Calm     91 % 0.0 in
17:04 8.9 °F 7.7 °F 1016.8 in Calm     92 % 0.0 in
17:09 8.9 °F 7.7 °F 1016.8 in Calm     92 % 0.0 in
17:14 8.9 °F 7.7 °F 1016.8 in Calm     92 % 0.0 in
17:19 8.8 °F 7.6 °F 1016.8 in Calm     92 % 0.0 in
17:24 8.7 °F 7.5 °F 1016.8 in Calm     92 % 0.0 in
17:29 8.6 °F 7.4 °F 1016.8 in Calm     92 % 0.0 in
17:34 8.5 °F 7.3 °F 1016.8 in Calm     92 % 0.0 in
17:39 8.5 °F 7.3 °F 1016.8 in Calm     92 % 0.0 in
17:44 8.4 °F 7.3 °F 1016.8 in Calm     93 % 0.0 in
17:49 8.4 °F 7.3 °F 1016.8 in Calm     93 % 0.0 in
17:54 8.3 °F 7.2 °F 1016.8 in Calm     93 % 0.0 in
17:59 8.3 °F 7.2 °F 1016.8 in Calm     93 % 0.0 in
18:04 8.3 °F 7.2 °F 1016.8 in Calm     93 % 0.0 in
18:09 8.3 °F 7.2 °F 1018.2 in Calm     93 % 0.0 in
18:14 8.3 °F 7.2 °F 1018.2 in Calm     93 % 0.0 in
18:16 8.3 °F 7.4 °F 1018.2 in Calm     94 % 0.0 in
18:21 8.3 °F 7.4 °F 1016.8 in West 1.0 mph 4.0 mph 94 % 0.0 in
18:26 8.3 °F 7.4 °F 1016.8 in West 1.3 mph 4.0 mph 94 % 0.0 in
18:31 8.3 °F 7.4 °F 1016.8 in West 0.3 mph 2.6 mph 94 % 0.0 in
18:36 8.2 °F 7.3 °F 1018.2 in Calm     94 % 0.0 in
18:41 8.2 °F 7.3 °F 1018.2 in Calm     94 % 0.0 in
18:46 8.2 °F 7.3 °F 1018.2 in Calm     94 % 0.0 in
18:51 8.2 °F 7.3 °F 1018.2 in Calm     94 % 0.0 in
18:56 8.2 °F 7.3 °F 1018.2 in Calm     94 % 0.0 in
19:01 8.2 °F 7.3 °F 1018.2 in Calm     94 % 0.0 in
19:06 8.2 °F 7.4 °F 1018.2 in Calm     95 % 0.0 in
19:11 8.1 °F 7.3 °F 1018.2 in Calm     95 % 0.0 in
19:16 8.1 °F 7.3 °F 1018.2 in Calm     95 % 0.0 in
19:21 8.1 °F 7.3 °F 1018.2 in Calm     95 % 0.0 in
19:26 8.1 °F 7.3 °F 1018.2 in Calm     95 % 0.0 in
19:31 8.1 °F 7.3 °F 1018.2 in Calm     95 % 0.0 in
19:36 8.1 °F 7.3 °F 1016.8 in Calm     95 % 0.0 in
19:41 8.1 °F 7.3 °F 1016.8 in Calm     95 % 0.0 in
19:46 8.1 °F 7.3 °F 1016.8 in Calm     95 % 0.0 in
19:51 8.1 °F 7.3 °F 1016.8 in Calm     95 % 0.0 in
19:56 8.0 °F 7.2 °F 1016.8 in Calm     95 % 0.0 in
20:01 8.0 °F 7.2 °F 1016.8 in Calm     95 % 0.0 in
20:06 8.0 °F 7.2 °F 1016.8 in Calm     95 % 0.0 in
20:11 8.0 °F 7.2 °F 1016.8 in Calm     95 % 0.0 in
20:16 8.0 °F 7.2 °F 1016.8 in Calm     95 % 0.0 in
20:21 8.0 °F 7.2 °F 1018.2 in Calm     95 % 0.0 in
20:26 7.9 °F 7.3 °F 1018.2 in Calm     96 % 0.0 in
20:31 7.8 °F 7.2 °F 1018.2 in Calm     96 % 0.0 in
20:36 7.8 °F 7.2 °F 1018.2 in Calm     96 % 0.0 in
20:41 7.7 °F 7.1 °F 1018.2 in Calm     96 % 0.0 in
20:46 7.7 °F 7.1 °F 1018.2 in Calm     96 % 0.0 in
20:51 7.6 °F 7.0 °F 1018.2 in NW 0.2 mph 3.5 mph 96 % 0.0 in
20:56 7.6 °F 7.0 °F 1018.2 in NW 0.2 mph 3.5 mph 96 % 0.0 in
21:01 7.6 °F 7.0 °F 1018.2 in Calm     96 % 0.0 in
21:06 7.6 °F 7.0 °F 1018.2 in Calm     96 % 0.0 in
21:11 7.5 °F 6.9 °F 1018.2 in Calm     96 % 0.0 in
21:16 7.5 °F 6.9 °F 1018.2 in NW 0.3 mph 4.0 mph 96 % 0.0 in
21:21 7.5 °F 6.9 °F 1018.8 in NW 0.3 mph 4.0 mph 96 % 0.0 in
21:26 7.5 °F 6.9 °F 1018.8 in Calm     96 % 0.0 in
21:31 7.5 °F 6.9 °F 1018.8 in Calm     96 % 0.0 in
21:36 7.5 °F 6.9 °F 1018.8 in Calm     96 % 0.0 in
21:41 7.5 °F 6.9 °F 1018.8 in WSW 0.5 mph 4.7 mph 96 % 0.0 in
21:46 7.5 °F 6.9 °F 1018.8 in SW 1.9 mph 4.7 mph 96 % 0.0 in
21:51 7.5 °F 6.9 °F 1018.8 in SW 2.3 mph 4.3 mph 96 % 0.0 in
21:57 7.5 °F 6.9 °F 1018.8 in West 1.0 mph 4.0 mph 96 % 0.0 in
22:02 7.5 °F 6.9 °F 1018.8 in NNW 0.5 mph 4.0 mph 96 % 0.0 in
22:07 7.5 °F 6.9 °F 1018.8 in NW 0.2 mph 4.0 mph 96 % 0.0 in
22:12 7.5 °F 6.9 °F 1018.8 in Calm     96 % 0.0 in
22:17 7.6 °F 7.2 °F 1018.8 in Calm     97 % 0.0 in
22:22 7.6 °F 7.2 °F 1018.8 in Calm     97 % 0.0 in
22:27 7.6 °F 7.2 °F 1018.8 in Calm     97 % 0.0 in
22:32 7.6 °F 7.2 °F 1018.8 in Calm     97 % 0.0 in
22:37 7.7 °F 7.3 °F 1018.8 in Calm     97 % 0.0 in
22:42 7.7 °F 7.3 °F 1018.8 in Calm     97 % 0.0 in
22:47 7.7 °F 7.3 °F 1018.8 in Calm     97 % 0.0 in
22:52 7.7 °F 7.3 °F 1018.8 in Calm     97 % 0.0 in
22:57 7.7 °F 7.3 °F 1018.8 in Calm     97 % 0.0 in
23:02 7.7 °F 7.3 °F 1018.8 in Calm     97 % 0.0 in
23:07 7.8 °F 7.3 °F 1018.8 in Calm     97 % 0.0 in
23:12 7.8 °F 7.3 °F 1018.8 in Calm     97 % 0.0 in
23:17 7.8 °F 7.3 °F 1018.8 in Calm     97 % 0.0 in
23:22 7.8 °F 7.3 °F 1018.8 in Calm     97 % 0.0 in
23:27 7.8 °F 7.3 °F 1018.8 in Calm     97 % 0.0 in
23:32 7.8 °F 7.3 °F 1018.8 in Calm     97 % 0.0 in
23:37 7.8 °F 7.3 °F 1018.8 in Calm     97 % 0.0 in
23:42 7.8 °F 7.3 °F 1018.8 in Calm     97 % 0.0 in
23:47 7.8 °F 7.3 °F 1018.8 in Calm     97 % 0.0 in
23:52 7.8 °F 7.3 °F 1018.8 in Calm     97 % 0.0 in
23:57 7.8 °F 7.3 °F 1018.8 in Calm     97 % 0.0 in
23:58 7.8 °F 7.3 °F 1018.8 in Calm     97 % 0.0 in
Vremenska postaja Senovo
Podatki zbrani iz Weather Underground - 3 mb

Script developed by  Jim McMurry - jmcmurry@mwt.net Adapted for the template by  Wim van der Kuil - Leuven-Template.eu

Vremenski podatki so objavljeni na:

European Weather Network

WeatherCloud

Weather Underground

AWEKAS

HAMweather, WeatherForYou, PWS Weather

MapView

Geostik

Slovenia weather network

Oprema, ki se uporablja:

Vremenski program
Cumulus

Vremenski server
Asus

Cumulus

Asus